Rodovre, Denmark
Current Conditions -  °F | °C
As of 6:50 AM on Monday 22 Dec 2014 (Local Time) from EKCH Reporting Station
Broken Clouds Broken Clouds  
Wind Chill: 50°   Ceiling: 1500
Heat Index: 50°   Visibility: 6mi
Dew Point: 46°   Wind: 20mph
Humidity: 87%   Direction: 260°W
Pressure: 29.47"   Gusts: NA
Location:  55.68°N, 12.45°E
Report Text: EKCH 220550Z 26017KT 9999 FEW012 BKN015 10/08 Q0998 NOSIG
Loading
Personal Weather Stations






























Interactive Weather Map New forecast layout! Learn more

10-Day Weather Forecast

Advertisements
Track Severe Weather on mobile